Moores Creek National Battle, North Carolina
Current Conditions -  °F | °C
As of 4:53 PM on Friday 31 Oct 2014 (Local Time) from KILM Reporting Station
Few Clouds Few Clouds  
Wind Chill: 66°   Ceiling: Unl
Heat Index: 66°   Visibility: 10mi
Dew Point: 43°   Wind: 10mph
Humidity: 43%   Direction: 340°NNW
Pressure: 29.77"   Gusts: NA
Location:  34.4336°N, 78.0678°W
Report Text: KILM 312053Z 34009KT 10SM FEW055 19/06 A2977 RMK AO2 SLP081 T01890061 56013
Loading
Personal Weather Stations






























Interactive Weather Map
Tropical Storm Tracking
New forecast layout! Learn more

10-Day Weather Forecast

Advertisements
Track Severe Weather on mobile